Time;durP1;ratioP1;P1;durP2;ratioP2;P2;SDS_P1;SDS_P2;PMS_P1;PMS_P2;Temp;Humidity;BMP_temperature;BMP_pressure;BME280_temperature;BME280_humidity;BME280_pressure;Samples;Min_cycle;Max_cycle;Signal;HPM_P1;HPM_P2
2022/06/20 00:00:32;;;;;;;10.70;9.57;;;27.00;70.40;;;;;;4996342;28;20538;-88
2022/06/20 00:03:05;;;;;;;12.07;10.87;;;26.90;70.60;;;;;;4996241;28;20461;-88
2022/06/20 00:05:34;;;;;;;14.33;9.83;;;26.90;70.90;;;;;;4995844;28;20496;-88
2022/06/20 00:08:02;;;;;;;16.70;10.90;;;26.80;71.40;;;;;;4996574;28;20506;-89
2022/06/20 00:10:31;;;;;;;11.13;10.00;;;26.80;71.60;;;;;;5010053;28;20457;-89
2022/06/20 00:13:03;;;;;;;12.20;10.30;;;26.80;71.80;;;;;;5012212;28;20474;-88
2022/06/20 00:15:33;;;;;;;13.27;10.57;;;26.70;71.70;;;;;;5010039;28;20488;-88
2022/06/20 00:18:07;;;;;;;12.80;9.90;;;26.70;72.80;;;;;;5019453;28;20428;-88
2022/06/20 00:20:36;;;;;;;17.77;11.50;;;26.60;72.30;;;;;;5002688;28;20463;-89
2022/06/20 00:23:03;;;;;;;13.97;11.07;;;26.50;72.90;;;;;;5018191;28;20465;-86
2022/06/20 00:25:34;;;;;;;17.00;11.27;;;26.40;73.20;;;;;;4998216;28;20573;-88
2022/06/20 00:28:03;;;;;;;16.00;11.30;;;26.40;74.00;;;;;;4997927;28;20816;-88
2022/06/20 00:30:34;;;;;;;12.50;11.17;;;26.30;74.30;;;;;;4996479;28;20468;-89
2022/06/20 00:33:02;;;;;;;15.80;12.30;;;26.10;74.40;;;;;;4998554;28;20457;-89
2022/06/20 00:35:29;;;;;;;15.77;11.53;;;26.10;75.00;;;;;;4998253;28;20472;-88
2022/06/20 00:37:59;;;;;;;15.20;11.30;;;26.10;75.10;;;;;;4997044;28;20451;-88
2022/06/20 00:40:40;;;;;;;14.60;11.10;;;26.20;75.20;;;;;;4995515;28;20522;-88
2022/06/20 00:43:14;;;;;;;14.47;10.63;;;26.30;75.30;;;;;;5005725;28;20462;-89
2022/06/20 00:45:46;;;;;;;18.10;10.30;;;26.20;75.40;;;;;;5003192;28;20489;-88
2022/06/20 00:48:19;;;;;;;16.50;11.33;;;26.20;75.60;;;;;;4995926;28;20458;-88
2022/06/20 00:50:53;;;;;;;11.53;10.23;;;26.10;76.40;;;;;;4995697;28;20479;-88
2022/06/20 00:53:25;;;;;;;13.30;11.10;;;26.10;76.60;;;;;;4995088;28;20482;-88
2022/06/20 00:55:58;;;;;;;12.43;11.07;;;26.00;77.00;;;;;;4995781;28;20471;-88
2022/06/20 00:58:33;;;;;;;13.13;10.90;;;26.00;77.40;;;;;;5015640;28;20475;-88
2022/06/20 01:01:05;;;;;;;16.70;10.67;;;26.10;77.50;;;;;;5006116;28;20451;-89
2022/06/20 01:03:41;;;;;;;15.37;11.00;;;26.20;76.40;;;;;;4996308;28;20458;-89
2022/06/20 01:06:15;;;;;;;17.40;10.50;;;26.40;75.80;;;;;;4997883;28;20487;-89
2022/06/20 01:08:48;;;;;;;11.87;10.77;;;26.40;75.00;;;;;;4995389;28;20486;-89
2022/06/20 01:11:18;;;;;;;17.10;11.83;;;26.40;74.90;;;;;;4997447;28;20514;-89
2022/06/20 01:13:46;;;;;;;22.70;14.33;;;26.60;74.60;;;;;;5002993;28;20455;-86
2022/06/20 01:16:24;;;;;;;29.33;15.00;;;26.30;84.40;;;;;;5000441;28;20471;-87
2022/06/20 01:18:52;;;;;;;21.00;14.00;;;25.70;91.30;;;;;;4995331;28;20974;-88
2022/06/20 01:21:21;;;;;;;20.20;14.87;;;25.10;95.70;;;;;;4993508;28;20470;-89
2022/06/20 01:23:53;;;;;;;22.07;15.10;;;24.70;97.30;;;;;;4993495;28;20455;-88
2022/06/20 01:26:30;;;;;;;18.03;15.97;;;24.60;99.90;;;;;;4993559;28;20505;-88
2022/06/20 01:29:01;;;;;;;24.23;16.30;;;24.50;99.90;;;;;;4993409;28;20804;-89
2022/06/20 01:31:32;;;;;;;23.17;16.47;;;24.50;99.90;;;;;;4993387;28;20545;-88
2022/06/20 01:34:01;;;;;;;16.43;14.70;;;24.50;99.90;;;;;;4993366;28;20451;-89
2022/06/20 01:39:17;;;;;;;19.80;16.13;;;24.40;99.90;;;;;;4993359;28;20490;-88
2022/06/20 01:44:36;;;;;;;18.77;15.83;;;24.10;99.90;;;;;;5015423;28;20481;-89
2022/06/20 01:47:02;;;;;;;19.93;14.97;;;23.90;99.90;;;;;;5006414;28;20489;-86
2022/06/20 01:49:32;;;;;;;20.03;16.63;;;23.70;99.90;;;;;;4993633;28;20469;-85
2022/06/20 01:52:02;;;;;;;17.53;15.57;;;23.70;99.90;;;;;;4993234;28;20449;-86
2022/06/20 01:54:33;;;;;;;20.93;18.20;;;23.60;99.90;;;;;;4993116;28;20483;-86
2022/06/20 01:57:00;;;;;;;17.77;15.20;;;23.60;99.90;;;;;;4993188;28;20455;-86
2022/06/20 01:59:35;;;;;;;19.17;16.93;;;23.60;99.90;;;;;;4992996;28;21163;-87
2022/06/20 02:02:03;;;;;;;20.20;18.00;;;23.70;99.90;;;;;;5005836;28;20430;-88
2022/06/20 02:04:34;;;;;;;18.20;16.50;;;23.70;99.90;;;;;;5020237;28;20461;-87
2022/06/20 02:07:02;;;;;;;23.93;18.63;;;23.70;99.90;;;;;;4998062;28;20497;-87
2022/06/20 02:09:29;;;;;;;20.87;18.63;;;23.70;99.90;;;;;;4997173;28;20454;-87
2022/06/20 02:11:56;;;;;;;20.87;18.70;;;23.80;99.90;;;;;;4998437;28;20454;-87
2022/06/20 02:14:26;;;;;;;20.30;18.13;;;23.80;99.90;;;;;;5008340;28;20817;-87
2022/06/20 02:16:59;;;;;;;24.27;17.97;;;23.70;99.90;;;;;;5008166;28;20445;-87
2022/06/20 02:19:29;;;;;;;20.70;18.67;;;23.70;99.90;;;;;;4995326;28;20834;-88
2022/06/20 02:21:59;;;;;;;20.10;17.97;;;23.70;99.90;;;;;;4996149;28;20458;-87
2022/06/20 02:24:29;;;;;;;25.10;18.10;;;23.70;99.90;;;;;;4997414;28;20485;-87
2022/06/20 02:27:01;;;;;;;24.07;18.63;;;23.80;99.90;;;;;;4995967;28;20485;-87
2022/06/20 02:29:29;;;;;;;18.37;16.57;;;23.80;99.90;;;;;;4996680;28;20458;-87
2022/06/20 02:32:01;;;;;;;19.63;17.10;;;23.70;99.90;;;;;;5008586;28;20454;-86
2022/06/20 02:34:30;;;;;;;27.13;18.40;;;23.70;99.90;;;;;;5009652;28;20566;-87
2022/06/20 02:37:01;;;;;;;19.80;16.87;;;23.70;99.90;;;;;;5000933;28;20791;-87
2022/06/20 02:39:29;;;;;;;21.63;19.40;;;23.70;99.90;;;;;;5009570;28;20541;-87
2022/06/20 02:41:59;;;;;;;23.43;18.53;;;23.70;99.90;;;;;;4999092;28;20456;-87
2022/06/20 02:44:27;;;;;;;21.93;18.30;;;23.60;99.90;;;;;;4999559;28;20473;-87
2022/06/20 02:46:57;;;;;;;20.87;18.53;;;23.20;99.90;;;;;;5012649;28;20477;-87
2022/06/20 02:49:27;;;;;;;23.40;21.10;;;23.00;99.90;;;;;;5021118;28;20433;-88
2022/06/20 02:51:55;;;;;;;22.83;19.20;;;22.70;99.90;;;;;;5001213;28;20466;-87
2022/06/20 02:54:26;;;;;;;21.50;19.37;;;22.40;99.90;;;;;;5019762;28;20503;-87
2022/06/20 02:56:58;;;;;;;24.20;21.30;;;22.30;99.90;;;;;;5019490;28;20414;-87
2022/06/20 02:59:29;;;;;;;24.83;21.80;;;22.20;99.90;;;;;;5018929;28;20452;-87
2022/06/20 03:02:02;;;;;;;30.13;22.40;;;22.10;99.90;;;;;;5015643;28;20447;-87
2022/06/20 03:04:32;;;;;;;20.53;18.20;;;22.10;99.90;;;;;;5013173;28;20515;-87
2022/06/20 03:07:44;;;;;;;23.37;19.53;;;22.00;99.90;;;;;;5014213;28;20877;-87
2022/06/20 03:10:20;;;;;;;20.10;18.10;;;21.90;99.90;;;;;;4986631;28;20479;-87
2022/06/20 03:12:48;;;;;;;25.70;18.30;;;21.70;99.90;;;;;;4999631;28;20440;-87
2022/06/20 03:15:16;;;;;;;21.90;17.60;;;21.60;99.90;;;;;;5013313;28;20468;-87
2022/06/20 03:17:46;;;;;;;17.77;16.00;;;21.60;99.90;;;;;;5004745;28;20444;-87
2022/06/20 03:20:16;;;;;;;21.00;16.97;;;21.70;99.90;;;;;;4998715;28;20467;-87
2022/06/20 03:22:47;;;;;;;21.40;16.60;;;21.70;99.90;;;;;;4997092;28;20945;-87
2022/06/20 03:25:15;;;;;;;17.50;15.57;;;21.70;99.90;;;;;;5013690;28;20480;-88
2022/06/20 03:27:43;;;;;;;17.13;14.80;;;21.80;99.90;;;;;;5013846;28;20496;-87
2022/06/20 03:30:24;;;;;;;19.60;16.67;;;21.80;99.90;;;;;;5013727;28;20426;-87
2022/06/20 03:32:53;;;;;;;17.50;15.60;;;21.80;99.90;;;;;;5014102;28;20445;-88
2022/06/20 03:35:19;;;;;;;18.13;16.30;;;21.70;99.90;;;;;;5014130;28;20477;-87
2022/06/20 03:37:47;;;;;;;22.67;17.67;;;21.70;99.90;;;;;;5001251;28;20437;-87
2022/06/20 03:40:15;;;;;;;20.43;17.60;;;21.80;99.90;;;;;;5016285;28;20476;-87
2022/06/20 03:42:42;;;;;;;20.70;17.27;;;22.00;99.90;;;;;;5012516;28;20433;-87
2022/06/20 03:45:10;;;;;;;19.23;17.30;;;22.10;99.90;;;;;;5003341;28;20476;-87
2022/06/20 03:47:42;;;;;;;28.97;21.00;;;22.20;99.90;;;;;;4997502;28;20574;-87
2022/06/20 03:50:16;;;;;;;23.03;19.90;;;22.40;99.90;;;;;;4996366;28;21082;-88
2022/06/20 03:52:49;;;;;;;27.17;20.80;;;22.30;99.90;;;;;;5000338;28;20459;-87
2022/06/20 03:55:24;;;;;;;25.00;19.03;;;22.30;99.90;;;;;;5014514;28;20465;-88
2022/06/20 03:57:56;;;;;;;24.10;19.83;;;22.10;99.90;;;;;;5027255;28;20423;-87
2022/06/20 04:00:29;;;;;;;20.13;18.13;;;22.10;99.90;;;;;;5023396;28;20448;-85
2022/06/20 04:03:01;;;;;;;22.90;17.13;;;22.00;99.90;;;;;;5002664;28;20443;-85
2022/06/20 04:05:34;;;;;;;18.43;15.53;;;21.80;99.90;;;;;;5009189;28;20458;-86
2022/06/20 04:08:05;;;;;;;18.97;16.13;;;21.70;99.90;;;;;;4996318;28;20982;-87
2022/06/20 04:13:26;;;;;;;19.10;15.53;;;21.60;99.90;;;;;;5003234;28;21234;-87
2022/06/20 04:15:59;;;;;;;28.80;16.00;;;21.40;99.90;;;;;;5009363;28;21004;-88
2022/06/20 04:18:37;;;;;;;17.77;15.20;;;21.40;99.90;;;;;;5004351;28;20832;-88
2022/06/20 04:21:18;;;;;;;13.63;12.10;;;21.30;99.90;;;;;;5010450;28;20525;-88
2022/06/20 04:23:53;;;;;;;15.87;14.00;;;21.40;99.90;;;;;;5000708;28;20467;-87
2022/06/20 04:26:24;;;;;;;24.30;14.80;;;21.40;99.90;;;;;;5057560;22;20650;-85
2022/06/20 04:28:54;;;;;;;16.87;14.17;;;21.30;99.90;;;;;;5037722;28;20440;-86
2022/06/20 04:31:36;;;;;;;16.77;13.73;;;21.30;99.90;;;;;;5038381;28;20443;-86
2022/06/20 04:34:12;;;;;;;18.97;13.90;;;21.30;99.90;;;;;;5045850;28;20436;-85
2022/06/20 04:36:47;;;;;;;16.97;13.03;;;21.20;99.90;;;;;;5025224;28;20868;-86
2022/06/20 04:39:21;;;;;;;20.10;14.20;;;21.20;99.90;;;;;;5032421;28;20442;-85
2022/06/20 04:41:53;;;;;;;16.13;13.17;;;21.20;99.90;;;;;;5017287;28;20972;-86
2022/06/20 04:44:26;;;;;;;14.33;12.83;;;21.20;99.90;;;;;;5017631;28;20449;-85
2022/06/20 04:47:11;;;;;;;13.93;12.60;;;21.30;99.90;;;;;;5017316;28;20486;-85
2022/06/20 04:49:39;;;;;;;15.13;13.17;;;21.40;99.90;;;;;;5017562;28;20464;-85
2022/06/20 04:52:11;;;;;;;20.07;11.47;;;21.50;99.90;;;;;;5017928;28;20454;-85
2022/06/20 04:54:39;;;;;;;13.63;10.60;;;21.60;99.90;;;;;;5017872;28;20522;-86
2022/06/20 04:57:06;;;;;;;15.37;11.00;;;21.60;99.90;;;;;;5016789;28;20447;-86
2022/06/20 04:59:34;;;;;;;15.20;11.50;;;21.70;99.90;;;;;;5017171;28;20501;-84
2022/06/20 05:02:05;;;;;;;15.00;10.53;;;21.70;99.90;;;;;;5022467;28;20454;-85
2022/06/20 05:04:35;;;;;;;16.80;12.50;;;21.70;99.90;;;;;;5023051;28;20442;-84
2022/06/20 05:07:06;;;;;;;11.63;10.17;;;21.80;99.90;;;;;;5024104;28;20482;-86
2022/06/20 05:09:39;;;;;;;13.70;10.27;;;21.80;99.90;;;;;;5018578;28;20458;-86
2022/06/20 05:12:16;;;;;;;15.53;11.90;;;21.90;99.90;;;;;;5020322;28;20450;-85
2022/06/20 05:14:51;;;;;;;14.13;10.67;;;22.00;99.90;;;;;;5037906;28;20442;-86
2022/06/20 05:17:22;;;;;;;13.90;11.27;;;22.10;99.90;;;;;;5028909;28;20450;-86
2022/06/20 05:19:52;;;;;;;12.83;10.13;;;22.20;99.90;;;;;;5018769;28;20451;-86
2022/06/20 05:22:23;;;;;;;11.87;9.37;;;22.30;99.90;;;;;;5023786;28;20448;-85
2022/06/20 05:24:53;;;;;;;12.00;10.50;;;22.40;99.90;;;;;;5021435;28;20521;-86
2022/06/20 05:27:23;;;;;;;13.23;9.30;;;22.30;99.90;;;;;;5019323;28;21008;-85
2022/06/20 05:29:52;;;;;;;11.33;10.03;;;22.40;99.90;;;;;;5018898;28;20442;-85
2022/06/20 05:32:25;;;;;;;9.50;8.47;;;22.50;99.90;;;;;;5019906;28;20460;-86
2022/06/20 05:34:58;;;;;;;12.30;8.90;;;22.60;99.90;;;;;;5019600;28;20435;-86
2022/06/20 05:37:32;;;;;;;12.73;8.43;;;22.70;99.90;;;;;;5021520;28;20451;-86
2022/06/20 05:40:07;;;;;;;10.60;8.97;;;22.70;99.90;;;;;;5024612;28;20450;-85
2022/06/20 05:42:36;;;;;;;13.47;9.97;;;22.60;99.90;;;;;;5023239;28;20454;-84
2022/06/20 05:45:12;;;;;;;11.70;8.70;;;22.60;99.90;;;;;;5023627;28;20469;-85
2022/06/20 05:47:40;;;;;;;12.67;9.40;;;22.50;99.90;;;;;;5024272;28;20483;-86
2022/06/20 05:50:18;;;;;;;11.23;8.47;;;22.40;99.90;;;;;;5022340;28;20475;-85
2022/06/20 05:52:45;;;;;;;11.47;9.10;;;22.40;99.90;;;;;;5022964;28;20931;-85
2022/06/20 05:55:18;;;;;;;16.40;9.50;;;22.40;99.90;;;;;;5022263;28;20486;-86
2022/06/20 05:57:48;;;;;;;13.50;8.20;;;22.40;99.90;;;;;;5022020;28;20511;-85
2022/06/20 06:00:18;;;;;;;11.13;9.57;;;22.40;99.90;;;;;;5033858;28;20450;-84
2022/06/20 06:02:51;;;;;;;13.30;8.60;;;22.50;99.90;;;;;;5022422;28;20457;-87
2022/06/20 06:05:25;;;;;;;9.90;8.60;;;22.50;99.90;;;;;;5021272;28;20852;-85
2022/06/20 07:59:24;;;;;;;13.00;9.27;;;33.90;64.90;;;;;;6212130;23;20392;-87
2022/06/20 08:01:56;;;;;;;12.10;9.07;;;34.00;64.20;;;;;;6169916;23;20410;-87
2022/06/20 08:04:27;;;;;;;10.53;8.33;;;34.60;61.80;;;;;;6145165;23;20425;-87
2022/06/20 08:06:58;;;;;;;11.73;8.57;;;34.90;60.50;;;;;;5764064;23;20493;-87
2022/06/20 08:09:33;;;;;;;11.20;8.33;;;36.00;57.70;;;;;;6018539;23;20419;-87
2022/06/20 08:12:05;;;;;;;12.23;7.33;;;36.10;56.10;;;;;;5795930;24;20432;-87
2022/06/20 08:20:17;;;;;;;7.22;6.53;;;36.10;55.60;;;;;;5145521;27;20509;-88
2022/06/20 08:26:49;;;;;;;;;;;;;;;;;;;;;
2022/06/20 08:32:49;;;;;;;9.47;6.50;;;36.80;50.00;;;;;;5022741;28;20204;-87
2022/06/20 08:35:39;;;;;;;7.83;5.67;;;37.20;49.80;;;;;;4992185;28;20485;-87
2022/06/20 08:41:46;;;;;;;9.50;6.73;;;36.90;49.20;;;;;;4658242;30;20463;-85
2022/06/20 08:44:29;;;;;;;9.27;6.60;;;37.30;49.00;;;;;;4411713;31;1206462;-85
2022/06/20 08:50:25;;;;;;;9.53;7.00;;;38.40;46.80;;;;;;5089793;27;21002;-84
2022/06/20 08:53:36;;;;;;;11.07;7.43;;;38.60;45.40;;;;;;5068365;28;20439;-86
2022/06/20 08:56:20;;;;;;;11.73;7.73;;;38.30;45.00;;;;;;5053039;28;20439;-86
2022/06/20 08:59:09;;;;;;;8.20;7.13;;;38.80;44.20;;;;;;5068829;28;20928;-84
2022/06/20 09:01:44;;;;;;;7.60;6.30;;;39.60;43.00;;;;;;5075676;28;20508;-84
2022/06/20 09:04:37;;;;;;;7.70;6.90;;;39.90;42.60;;;;;;5076878;28;20514;-83
2022/06/20 09:07:38;;;;;;;7.93;6.63;;;40.50;42.00;;;;;;5080443;28;20442;-84
2022/06/20 09:10:25;;;;;;;9.47;6.63;;;40.20;41.10;;;;;;5072020;28;20428;-84
2022/06/20 09:13:09;;;;;;;11.27;7.37;;;40.10;41.70;;;;;;5070209;28;20441;-85
2022/06/20 09:15:43;;;;;;;7.30;6.60;;;40.40;41.50;;;;;;5086042;28;20468;-86
2022/06/20 09:18:20;;;;;;;8.07;6.33;;;40.60;40.60;;;;;;5075004;28;20429;-87
2022/06/20 09:20:52;;;;;;;8.97;8.10;;;41.20;39.90;;;;;;5073241;28;20443;-84
2022/06/20 09:23:38;;;;;;;7.17;6.30;;;41.80;38.80;;;;;;5071521;28;20443;-84
2022/06/20 09:26:09;;;;;;;12.00;7.47;;;42.20;38.00;;;;;;5071142;28;20428;-85
2022/06/20 09:29:01;;;;;;;8.27;6.00;;;42.80;37.00;;;;;;5069440;28;20476;-86
2022/06/20 09:32:16;;;;;;;9.00;6.53;;;43.00;36.50;;;;;;5068667;28;20484;-85
2022/06/20 09:35:03;;;;;;;8.17;5.90;;;43.50;35.10;;;;;;5048731;28;20448;-85
2022/06/20 09:37:47;;;;;;;10.07;6.90;;;44.10;35.00;;;;;;5068259;28;20456;-86
2022/06/20 09:40:26;;;;;;;10.00;6.90;;;44.20;34.30;;;;;;5069586;28;20440;-85
2022/06/20 09:43:01;;;;;;;7.23;6.53;;;43.60;34.40;;;;;;5067423;28;20448;-85
2022/06/20 09:45:36;;;;;;;10.40;6.60;;;42.90;35.60;;;;;;5067936;28;20452;-85
2022/06/20 09:48:15;;;;;;;6.97;6.23;;;43.50;35.20;;;;;;5067116;28;20533;-85
2022/06/20 09:50:52;;;;;;;9.27;6.87;;;43.40;35.50;;;;;;5072278;28;20468;-86
2022/06/20 09:53:35;;;;;;;7.63;6.30;;;42.80;35.20;;;;;;5083393;28;20450;-85
2022/06/20 09:56:11;;;;;;;8.67;6.23;;;43.40;34.50;;;;;;5078697;28;21021;-86
2022/06/20 09:58:46;;;;;;;11.40;6.50;;;43.50;34.40;;;;;;5068338;28;20455;-86
2022/06/20 10:01:19;;;;;;;7.80;5.70;;;43.60;34.30;;;;;;5066990;28;20444;-86
2022/06/20 10:03:54;;;;;;;9.83;6.47;;;42.80;34.50;;;;;;5060601;28;20472;-88
2022/06/20 10:06:31;;;;;;;8.97;7.17;;;42.10;35.20;;;;;;5055385;28;20449;-87
2022/06/20 10:09:07;;;;;;;6.90;6.30;;;42.00;36.50;;;;;;5054958;28;20480;-86
2022/06/20 10:11:41;;;;;;;7.47;6.30;;;42.40;35.80;;;;;;5058087;28;20869;-86
2022/06/20 10:14:16;;;;;;;6.33;5.73;;;43.10;35.00;;;;;;5056411;28;20472;-87
2022/06/20 10:16:53;;;;;;;10.67;6.90;;;44.10;34.00;;;;;;5057699;28;20448;-86
2022/06/20 10:19:33;;;;;;;8.87;6.07;;;44.40;33.00;;;;;;5057565;28;20855;-86
2022/06/20 10:22:08;;;;;;;8.90;6.70;;;44.80;32.50;;;;;;5060678;28;20953;-85
2022/06/20 10:24:59;;;;;;;6.90;6.20;;;44.50;33.10;;;;;;5059224;28;20488;-87
2022/06/20 10:27:44;;;;;;;6.67;5.83;;;44.30;33.10;;;;;;5056777;28;20521;-86
2022/06/20 10:30:14;;;;;;;7.53;5.80;;;44.30;32.70;;;;;;5061694;28;20487;-87
2022/06/20 10:32:55;;;;;;;7.70;6.10;;;44.30;33.10;;;;;;5060622;28;20908;-86
2022/06/20 10:35:35;;;;;;;6.53;5.57;;;45.00;32.40;;;;;;5062937;28;20464;-86
2022/06/20 10:38:07;;;;;;;6.60;6.00;;;45.60;31.80;;;;;;5078505;28;20449;-87
2022/06/20 10:40:40;;;;;;;7.10;5.70;;;45.10;31.50;;;;;;5078407;28;20429;-84
2022/06/20 10:43:10;;;;;;;6.50;5.37;;;44.50;32.70;;;;;;5078185;28;20425;-85
2022/06/20 10:45:45;;;;;;;7.80;5.87;;;42.90;33.60;;;;;;5074711;28;20465;-86
2022/06/20 10:48:39;;;;;;;8.10;5.90;;;42.10;34.70;;;;;;5059914;28;21049;-86
2022/06/20 10:51:14;;;;;;;10.30;6.30;;;41.40;35.80;;;;;;5059109;28;20433;-86
2022/06/20 10:53:52;;;;;;;7.10;6.27;;;40.90;36.40;;;;;;5058416;28;20477;-86
2022/06/20 10:56:29;;;;;;;6.87;6.10;;;41.00;36.90;;;;;;5061197;28;20445;-85
2022/06/20 10:59:11;;;;;;;9.07;5.87;;;41.30;36.00;;;;;;5058624;28;20831;-86
2022/06/20 11:01:44;;;;;;;6.77;6.03;;;41.50;35.90;;;;;;5057716;28;20809;-85
2022/06/20 11:04:31;;;;;;;7.67;5.93;;;41.40;35.90;;;;;;5068290;28;20472;-86
2022/06/20 11:07:11;;;;;;;6.83;5.87;;;40.40;36.80;;;;;;5076719;28;20437;-86
2022/06/20 11:09:49;;;;;;;9.47;6.80;;;39.90;38.10;;;;;;5056580;28;20473;-87
2022/06/20 11:12:27;;;;;;;7.60;6.50;;;39.30;37.90;;;;;;5057088;28;20883;-85
2022/06/20 11:15:03;;;;;;;7.77;6.67;;;40.10;38.30;;;;;;5053898;28;20472;-85
2022/06/20 11:17:36;;;;;;;9.07;7.00;;;40.20;37.70;;;;;;5054452;28;20498;-85
2022/06/20 11:20:17;;;;;;;11.60;6.20;;;39.30;38.40;;;;;;5059131;28;20446;-85
2022/06/20 11:22:49;;;;;;;8.40;6.10;;;38.00;39.50;;;;;;5071970;28;20451;-85
2022/06/20 11:25:26;;;;;;;7.97;6.70;;;36.70;41.50;;;;;;5065003;28;20437;-86
2022/06/20 11:28:21;;;;;;;8.27;6.60;;;35.90;43.20;;;;;;5055128;28;20927;-86
2022/06/20 11:30:57;;;;;;;9.97;6.80;;;35.20;45.00;;;;;;5054157;28;20444;-85
2022/06/20 11:36:32;;;;;;;9.40;7.43;;;35.40;45.30;;;;;;5055843;28;20470;-85
2022/06/20 11:39:09;;;;;;;8.90;6.67;;;35.50;44.90;;;;;;5075980;28;20461;-86
2022/06/20 11:41:42;;;;;;;9.40;6.97;;;37.00;43.10;;;;;;5066413;28;20458;-85
2022/06/20 11:44:25;;;;;;;9.60;6.70;;;38.60;40.40;;;;;;5067654;28;20509;-85
2022/06/20 11:47:28;;;;;;;10.90;7.07;;;39.80;38.60;;;;;;5051405;28;20448;-85
2022/06/20 11:50:22;;;;;;;7.83;6.80;;;39.30;38.60;;;;;;5050833;28;20478;-85
2022/06/20 11:52:56;;;;;;;10.03;6.73;;;39.60;38.10;;;;;;5042712;28;20478;-85
2022/06/20 11:55:29;;;;;;;10.93;6.70;;;39.10;38.40;;;;;;5052627;28;21027;-85
2022/06/20 11:58:01;;;;;;;8.67;6.30;;;38.00;40.00;;;;;;5050486;28;20493;-85
2022/06/20 12:00:35;;;;;;;8.80;7.50;;;36.80;41.90;;;;;;5053676;28;20879;-85
2022/06/20 12:03:12;;;;;;;9.40;6.50;;;35.40;44.40;;;;;;5068290;28;20432;-84
2022/06/20 12:05:51;;;;;;;10.63;6.47;;;34.70;45.80;;;;;;5052376;28;20480;-84
2022/06/20 12:08:29;;;;;;;7.40;6.27;;;34.00;47.00;;;;;;5052243;28;20445;-85
2022/06/20 12:10:59;;;;;;;6.90;6.17;;;33.30;48.50;;;;;;5052785;28;20443;-85
2022/06/20 12:13:41;;;;;;;9.10;7.03;;;34.00;47.70;;;;;;5053110;28;20931;-85
2022/06/20 12:16:21;;;;;;;8.63;5.43;;;34.10;47.20;;;;;;5053928;28;20469;-85
2022/06/20 12:24:41;;;;;;;7.50;6.13;;;32.80;49.50;;;;;;5054384;28;20603;-85
2022/06/20 12:27:11;;;;;;;11.97;6.73;;;33.10;50.30;;;;;;5054507;28;20996;-85
2022/06/20 12:29:37;;;;;;;7.60;6.60;;;34.30;48.90;;;;;;5049872;28;20486;-85
2022/06/20 12:32:13;;;;;;;7.13;6.37;;;34.70;48.20;;;;;;5050932;28;20451;-85
2022/06/20 12:34:46;;;;;;;9.90;6.80;;;35.60;46.80;;;;;;5054828;28;20442;-86
2022/06/20 12:37:21;;;;;;;9.53;6.17;;;35.80;46.20;;;;;;5061586;28;20430;-85
2022/06/20 12:39:56;;;;;;;8.30;6.00;;;35.90;46.20;;;;;;5067450;28;20438;-85
2022/06/20 12:42:30;;;;;;;9.80;5.73;;;35.30;45.90;;;;;;5068551;28;20466;-86
2022/06/20 12:45:08;;;;;;;7.80;5.20;;;34.50;47.40;;;;;;5073463;28;20486;-85
2022/06/20 12:47:57;;;;;;;9.50;6.40;;;33.90;48.60;;;;;;5060748;28;20445;-86
2022/06/20 12:50:30;;;;;;;8.47;5.90;;;33.10;49.40;;;;;;5059670;28;20487;-85
2022/06/20 12:53:27;;;;;;;7.20;6.00;;;32.50;50.40;;;;;;5056868;28;20438;-86
2022/06/20 12:56:05;;;;;;;10.30;6.30;;;32.00;51.50;;;;;;5057254;28;20536;-86
2022/06/20 12:59:13;;;;;;;9.03;6.40;;;31.70;52.70;;;;;;5057962;28;20443;-86
2022/06/20 13:01:45;;;;;;;7.17;6.47;;;31.60;53.00;;;;;;5072817;28;20427;-86
2022/06/20 13:04:46;;;;;;;9.70;7.47;;;31.40;53.60;;;;;;5070769;28;20483;-86
2022/06/20 13:07:37;;;;;;;9.90;6.73;;;31.30;53.70;;;;;;5060470;28;20443;-86
2022/06/20 13:10:30;;;;;;;9.13;6.07;;;31.40;53.80;;;;;;5058871;28;20535;-86
2022/06/20 13:13:30;;;;;;;10.03;6.53;;;31.40;53.80;;;;;;5058922;28;20433;-86
2022/06/20 13:16:05;;;;;;;9.20;6.43;;;31.30;53.70;;;;;;5056799;28;20433;-85
2022/06/20 13:18:57;;;;;;;8.77;7.33;;;31.10;54.20;;;;;;5058670;28;20445;-85
2022/06/20 13:21:34;;;;;;;9.50;6.30;;;30.80;54.40;;;;;;5046927;28;20886;-85
2022/06/20 13:24:21;;;;;;;11.40;6.53;;;30.60;55.80;;;;;;5056017;28;20449;-85
2022/06/20 13:27:00;;;;;;;10.93;6.17;;;30.50;55.80;;;;;;5057744;28;20455;-85
2022/06/20 13:29:37;;;;;;;10.17;6.87;;;30.30;56.10;;;;;;5058405;28;20469;-87
2022/06/20 13:32:10;;;;;;;11.30;6.50;;;30.10;56.80;;;;;;5072863;28;20435;-87
2022/06/20 13:34:49;;;;;;;8.23;6.13;;;30.00;57.30;;;;;;5063031;28;20518;-86
2022/06/20 13:37:28;;;;;;;11.77;6.10;;;29.70;57.90;;;;;;5061281;28;20440;-86
2022/06/20 13:40:02;;;;;;;8.77;6.07;;;29.60;58.30;;;;;;5063012;28;20447;-87
2022/06/20 13:42:37;;;;;;;7.60;5.30;;;29.40;59.40;;;;;;5056556;28;20441;-87
2022/06/20 13:45:11;;;;;;;9.30;5.83;;;29.30;59.40;;;;;;5053644;28;20460;-85
2022/06/20 13:47:51;;;;;;;9.30;6.27;;;28.90;60.00;;;;;;5051592;28;20437;-85
2022/06/20 13:50:24;;;;;;;5.90;5.30;;;28.80;60.80;;;;;;5065661;28;20483;-84
2022/06/20 13:52:57;;;;;;;9.20;6.20;;;28.60;62.10;;;;;;5072567;28;20452;-86
2022/06/20 13:55:30;;;;;;;8.63;5.37;;;28.50;62.60;;;;;;5056955;28;20460;-85
2022/06/20 13:58:05;;;;;;;7.03;5.13;;;28.30;62.70;;;;;;5059712;28;20443;-85
2022/06/20 14:00:34;;;;;;;9.17;6.00;;;28.20;63.20;;;;;;5059409;28;20425;-85
2022/06/20 14:03:13;;;;;;;7.13;4.80;;;28.00;63.60;;;;;;5060182;28;20420;-85
2022/06/20 14:05:41;;;;;;;6.10;5.00;;;27.80;64.20;;;;;;5059100;28;20441;-85
2022/06/20 14:08:15;;;;;;;6.73;5.90;;;27.50;65.20;;;;;;5060453;28;20463;-85
2022/06/20 14:10:47;;;;;;;7.17;5.63;;;27.40;66.20;;;;;;5061653;28;20471;-85
2022/06/20 14:13:23;;;;;;;7.27;6.37;;;27.40;67.40;;;;;;5060036;28;20439;-85
2022/06/20 14:15:52;;;;;;;6.73;6.03;;;27.50;66.40;;;;;;5060394;28;20427;-85
2022/06/20 14:18:23;;;;;;;6.27;5.57;;;27.60;66.40;;;;;;5058768;28;20440;-85
2022/06/20 14:21:01;;;;;;;6.97;5.50;;;27.60;66.50;;;;;;5059662;28;20439;-86
2022/06/20 14:23:29;;;;;;;7.60;5.23;;;27.60;66.40;;;;;;5070652;28;20498;-86
2022/06/20 14:26:04;;;;;;;7.57;5.33;;;27.60;66.60;;;;;;5059865;28;20468;-85
2022/06/20 14:28:35;;;;;;;13.10;4.83;;;27.70;66.10;;;;;;5055698;28;20432;-85
2022/06/20 14:31:15;;;;;;;5.30;4.80;;;27.70;65.70;;;;;;5059703;28;20452;-85
2022/06/20 14:33:46;;;;;;;5.80;5.00;;;27.90;65.50;;;;;;5057753;28;20524;-86
2022/06/20 14:36:21;;;;;;;9.70;5.03;;;28.00;65.10;;;;;;5060387;28;20444;-85
2022/06/20 14:38:53;;;;;;;5.90;5.10;;;28.20;64.20;;;;;;5075403;28;20432;-85
2022/06/20 14:41:40;;;;;;;5.40;4.83;;;28.30;64.00;;;;;;5064000;28;20483;-85
2022/06/20 14:44:26;;;;;;;6.10;5.07;;;28.50;63.80;;;;;;5057827;28;20448;-85
2022/06/20 14:47:02;;;;;;;8.40;7.60;;;28.50;63.40;;;;;;5058279;28;20468;-85
2022/06/20 14:49:34;;;;;;;6.63;5.23;;;28.30;63.60;;;;;;5057211;28;20485;-85
2022/06/20 14:52:12;;;;;;;5.23;4.33;;;28.20;64.30;;;;;;5059609;28;21001;-85
2022/06/20 14:54:48;;;;;;;7.10;4.30;;;28.10;64.80;;;;;;5076763;28;20456;-85
2022/06/20 14:57:27;;;;;;;4.63;4.00;;;28.20;64.70;;;;;;5061618;28;20432;-85
2022/06/20 15:00:05;;;;;;;5.17;4.67;;;28.40;64.20;;;;;;5060244;28;20460;-85
2022/06/20 15:02:41;;;;;;;6.27;4.37;;;28.50;63.40;;;;;;5071526;28;20512;-85
2022/06/20 15:05:23;;;;;;;5.33;4.30;;;28.40;63.90;;;;;;5067634;28;20460;-85
2022/06/20 15:07:54;;;;;;;5.93;4.70;;;28.40;63.80;;;;;;5065586;28;20440;-85
2022/06/20 15:10:26;;;;;;;5.27;4.23;;;28.40;64.80;;;;;;5064744;28;20474;-85
2022/06/20 15:12:57;;;;;;;5.17;4.67;;;28.50;63.90;;;;;;5066277;28;20494;-85
2022/06/20 15:15:33;;;;;;;5.10;4.60;;;28.50;63.80;;;;;;5069078;28;20460;-85
2022/06/20 15:18:21;;;;;;;6.80;4.90;;;28.50;63.50;;;;;;5068315;28;20445;-85
2022/06/20 15:20:58;;;;;;;6.90;5.17;;;28.40;64.10;;;;;;5063936;28;20801;-85
2022/06/20 15:23:32;;;;;;;5.10;4.60;;;28.20;64.90;;;;;;5061808;28;20437;-85
2022/06/20 15:26:08;;;;;;;6.27;4.20;;;28.20;65.10;;;;;;5057882;28;20448;-86
2022/06/20 15:28:42;;;;;;;6.37;5.23;;;28.20;64.80;;;;;;5056185;28;20494;-85
2022/06/20 15:31:12;;;;;;;4.97;4.37;;;28.10;65.00;;;;;;5056578;28;20479;-85
2022/06/20 15:33:41;;;;;;;7.00;4.80;;;27.80;65.30;;;;;;5057570;28;20453;-86
2022/06/20 15:36:22;;;;;;;4.77;4.33;;;27.30;67.00;;;;;;5057281;28;20514;-86
2022/06/20 15:38:59;;;;;;;6.60;4.67;;;27.00;68.40;;;;;;5065197;28;20440;-86
2022/06/20 15:41:47;;;;;;;5.33;4.83;;;26.70;69.00;;;;;;5059600;28;20439;-86
2022/06/20 15:44:47;;;;;;;6.47;5.10;;;26.60;70.50;;;;;;5056071;28;20457;-85
2022/06/20 15:47:20;;;;;;;6.90;5.30;;;26.70;70.50;;;;;;5038576;28;20476;-86